Flight Track Log - Related Links

Times and Time Zones

All times are in EDT time to prevent confusion due to time zone crossing. See the N50906 flight status page for this flight to view local times or setup timezone preferences in your user account.

Time Position Orientation Groundspeed Altitude Reporting Facility
EDT Latitude Longitude Course Direction KTS MPH feet Rate Location/Type
Sat 04:46:55 PM 38.8333 -90.6000 223° Southwest 103 119 1,900  Level Gateway (St. Louis) TRACON
Sat 04:47:55 PM 38.8167 -90.6167 218° Southwest 81 93 2,600 700 Climbing Gateway (St. Louis) TRACON
Sat 04:48:55 PM 38.8000 -90.6500 237° Southwest 92 106 3,300 632 Climbing Gateway (St. Louis) TRACON
Sat 04:49:49 PM 38.7833 -90.6667 218° Southwest 98 113 3,800 493 Climbing Gateway (St. Louis) TRACON
Sat 04:50:08 PM 38.7772 -90.6658 174° South 93 107 3,900 450 Climbing Kansas City Center
Sat 04:51:09 PM 38.7558 -90.6881 219° Southwest 97 112 4,400 244 Climbing Kansas City Center
Sat 04:52:00 PM 38.7588 -90.6309 223° Southwest  Level Estimated
Sat 04:52:11 PM 38.7347 -90.7131 223° Southwest 100 115 4,400  Level Kansas City Center
Sat 04:53:13 PM 38.7158 -90.7406 229° Southwest 102 117 4,300 -49 Descending Kansas City Center
Sat 04:54:14 PM 38.6903 -90.7706 223° Southwest 103 119 4,300  Level Kansas City Center
Sat 04:55:16 PM 38.6686 -90.7983 225° Southwest 106 122 4,300 48 Level Kansas City Center
Sat 04:56:18 PM 38.6450 -90.8233 220° Southwest 109 125 4,400  Climbing Kansas City Center
Sat 04:57:20 PM 38.6253 -90.8511 228° Southwest 108 124 4,300  Descending Kansas City Center
Sat 04:58:21 PM 38.6064 -90.8786 229° Southwest 106 122 4,400 98 Climbing Kansas City Center
Sat 04:59:23 PM 38.5872 -90.9067 229° Southwest 105 121 4,500  Climbing Kansas City Center
Sat 05:00:25 PM 38.5594 -90.9386 222° Southwest 110 127 4,400 -98 Descending Kansas City Center
Sat 05:01:26 PM 38.5353 -90.9644 220° Southwest 113 130 4,300 -98 Descending Kansas City Center
Sat 05:02:28 PM 38.5142 -90.9900 223° Southwest 107 123 4,200 -48 Descending Kansas City Center
Sat 05:03:30 PM 38.4931 -91.0142 222° Southwest 104 120 4,200  Level Kansas City Center
Sat 05:04:32 PM 38.4708 -91.0414 224° Southwest 108 124 4,200 -49 Level Kansas City Center
Sat 05:05:33 PM 38.4506 -91.0672 225° Southwest 106 122 4,100 98 Descending Kansas City Center
Sat 05:06:35 PM 38.4294 -91.0908 221° Southwest 102 117 4,400 194 Climbing Kansas City Center
Sat 05:07:37 PM 38.4017 -91.1192 219° Southwest 105 121 4,500 -49 Climbing Kansas City Center
Sat 05:08:38 PM 38.3772 -91.1433 218° Southwest 110 127 4,300 -98 Descending Kansas City Center
Sat 05:09:40 PM 38.3561 -91.1694 224° Southwest 107 123 4,300  Level Kansas City Center
Sat 05:10:41 PM 38.3358 -91.1944 224° Southwest 104 120 4,300  Level Kansas City Center
Sat 05:11:43 PM 38.3131 -91.2200 221° Southwest 107 123 4,300 48 Level Kansas City Center
Sat 05:12:45 PM 38.2925 -91.2458 225° Southwest 106 122 4,400 49 Climbing Kansas City Center
Sat 05:13:46 PM 38.2728 -91.2742 228° Southwest 107 123 4,400  Level Kansas City Center

Login

Don't have an account? Register now (free) for customized features, flight alerts, and more!